Flight Track Log - Related Links

Times and Time Zones

All times are in EDT time to prevent confusion due to time zone crossing. See the N691SP flight status page for this flight to view local times or setup timezone preferences in your user account.

Time Position Orientation Groundspeed Altitude Reporting Facility
EDT Latitude Longitude Course Direction KTS MPH feet Rate Location/Type
02:14PM 39.9111 -84.2142 North 76 87 1,200  Level Indianapolis Center
02:15PM 39.9239 -84.2136 North 75 86 1,600 551 Climbing Indianapolis Center
02:16PM 39.9422 -84.2197 346° North 80 92 2,100 472 Climbing Indianapolis Center
02:17PM 39.9611 -84.2394 321° Northwest 85 98 2,600 508 Climbing Indianapolis Center
02:18PM 39.9800 -84.2594 321° Northwest 81 93 3,200 485 Climbing Indianapolis Center
02:19PM 40.0019 -84.2825 321° Northwest 83 96 3,700 180 Climbing Indianapolis Center
02:20PM 40.0208 -84.3081 314° West 89 102 3,600 -165 Descending Indianapolis Center
02:21PM 40.0397 -84.3303 318° Northwest 112 129 3,400 -118 Descending Indianapolis Center
02:22PM 40.0642 -84.3403 343° North 110 127 3,400  Level Indianapolis Center
02:23PM 40.0864 -84.3469 347° North 70 81 3,400 -47 Level Indianapolis Center
02:24PM 40.0967 -84.3297 52° Northeast 44 51 3,300  Descending Indianapolis Center
02:25PM 40.1111 -84.3131 41° Northeast 99 114 3,400 48 Climbing Indianapolis Center
02:26PM 40.1400 -84.3183 352° North 102 117 3,400  Level Indianapolis Center
02:27PM 40.1647 -84.3228 352° North 90 104 3,400  Level Indianapolis Center
02:28PM 40.1897 -84.3272 352° North 90 104 3,400 50 Level Indianapolis Center
02:29PM 40.2142 -84.3344 347° North 95 109 3,500  Climbing Indianapolis Center
02:30PM 40.2186 -84.3711 279° West 118 136 3,400  Descending Indianapolis Center
02:31PM 40.2150 -84.3842 250° West 138 159 3,500 -141 Climbing Indianapolis Center
02:32PM 40.2169 -84.4064 277° West 106 122 3,100 -40 Descending Indianapolis Center
02:34PM 40.2022 -84.3925 144° Southeast 107 123 3,400 127 Climbing Indianapolis Center
02:35PM 40.2275 -84.3758 27° Northeast 105 121 3,400  Level Indianapolis Center
02:35PM 40.2442 -84.3675 21° North 105 121 3,400 -189 Level Indianapolis Center
02:36PM 40.2519 -84.3358 72° East 90 104 3,100  Descending Indianapolis Center
02:37PM 40.2708 -84.3558 321° Northwest 116 133 3,400 49 Climbing Indianapolis Center
02:38PM 40.2703 -84.3997 269° West 122 140 3,200 -198 Descending Indianapolis Center
02:39PM 40.2708 -84.4136 273° West 113 130 3,100 -500 Descending Indianapolis Center
02:39PM 40.2883 -84.3892 47° Northeast 102 117 2,700 -800 Descending Indianapolis Center

Login

Don't have an account? Register now (free) for customized features, flight alerts, and more!